sensor_id;sensor_type;location;lat;lon;timestamp;pressure;altitude;pressure_sealevel;temperature;humidity
46174;BME280;31897;52.420;13.498;2023-09-19T00:00:25;100300;;;16.34686;39.75239
46174;BME280;31897;52.420;13.498;2023-09-19T00:03:26;100300;;;16.35461;39.59755
46174;BME280;31897;52.420;13.498;2023-09-19T00:06:28;100300;;;16.31035;39.71092
46174;BME280;31897;52.420;13.498;2023-09-19T00:09:29;100300;;;16.37594;39.62721
46174;BME280;31897;52.420;13.498;2023-09-19T00:12:29;100300;;;16.45767;39.47786
46174;BME280;31897;52.420;13.498;2023-09-19T00:15:31;100300;;;16.55943;39.31046
46174;BME280;31897;52.420;13.498;2023-09-19T00:18:31;100300;;;16.46155;39.41233
46174;BME280;31897;52.420;13.498;2023-09-19T00:21:32;100300;;;16.47705;39.32289
46174;BME280;31897;52.420;13.498;2023-09-19T00:24:33;100300;;;16.40533;39.36502
46174;BME280;31897;52.420;13.498;2023-09-19T00:27:34;100300;;;16.42472;39.33513
46174;BME280;31897;52.420;13.498;2023-09-19T00:30:35;100300;;;16.42569;39.29939
46174;BME280;31897;52.420;13.498;2023-09-19T00:33:36;100300;;;16.43344;39.23978
46174;BME280;31897;52.420;13.498;2023-09-19T00:36:37;100200;;;16.44895;39.19203
46174;BME280;31897;52.420;13.498;2023-09-19T00:39:38;100200;;;16.41438;39.17439
46174;BME280;31897;52.420;13.498;2023-09-19T00:42:39;100200;;;16.40437;39.18041
46174;BME280;31897;52.420;13.498;2023-09-19T00:45:42;100200;;;16.39403;39.18048
46174;BME280;31897;52.420;13.498;2023-09-19T00:48:43;100200;;;16.3979;39.16855
46174;BME280;31897;52.420;13.498;2023-09-19T00:51:44;100200;;;16.32328;39.21071
46174;BME280;31897;52.420;13.498;2023-09-19T00:54:45;100200;;;16.23993;39.26483
46174;BME280;31897;52.420;13.498;2023-09-19T00:57:46;100200;;;16.2031;39.3484
46174;BME280;31897;52.420;13.498;2023-09-19T01:00:48;100300;;;16.19599;39.27106
46174;BME280;31897;52.420;13.498;2023-09-19T01:03:49;100300;;;15.99634;39.39725
46174;BME280;31897;52.420;13.498;2023-09-19T01:06:50;100300;;;15.81801;39.6897
46174;BME280;31897;52.420;13.498;2023-09-19T01:09:50;100200;;;15.745;39.7971
46174;BME280;31897;52.420;13.498;2023-09-19T01:12:53;100200;;;15.80638;39.86221
46174;BME280;31897;52.420;13.498;2023-09-19T01:15:58;100300;;;15.84353;39.69551
46174;BME280;31897;52.420;13.498;2023-09-19T01:19:04;100300;;;15.73757;39.89821
46174;BME280;31897;52.420;13.498;2023-09-19T01:22:09;100300;;;15.75631;39.85056
46174;BME280;31897;52.420;13.498;2023-09-19T01:25:19;100200;;;15.78183;39.85638
46174;BME280;31897;52.420;13.498;2023-09-19T01:28:30;100300;;;15.75114;39.90409
46174;BME280;31897;52.420;13.498;2023-09-19T01:31:31;100300;;;15.74726;39.84465
46174;BME280;31897;52.420;13.498;2023-09-19T01:34:50;100300;;;15.80121;39.79682
46174;BME280;31897;52.420;13.498;2023-09-19T01:37:51;100200;;;15.81219;39.71946
46174;BME280;31897;52.420;13.498;2023-09-19T01:40:53;100200;;;15.7618;39.81486
46174;BME280;31897;52.420;13.498;2023-09-19T01:43:57;100300;;;15.78183;39.79097
46174;BME280;31897;52.420;13.498;2023-09-19T01:47:01;100300;;;15.79636;39.85631
46174;BME280;31897;52.420;13.498;2023-09-19T01:50:09;100300;;;15.73563;39.95767
46174;BME280;31897;52.420;13.498;2023-09-19T01:53:14;100300;;;15.61868;39.93443
46174;BME280;31897;52.420;13.498;2023-09-19T01:56:16;100300;;;15.58702;39.99995
46174;BME280;31897;52.420;13.498;2023-09-19T01:59:23;100300;;;15.46684;40.17872
46174;BME280;31897;52.420;13.498;2023-09-19T02:02:25;100300;;;15.38285;40.27409
46174;BME280;31897;52.420;13.498;2023-09-19T02:05:26;100300;;;15.41225;40.26804
46174;BME280;31897;52.420;13.498;2023-09-19T02:08:27;100300;;;15.38931;40.22654
46174;BME280;31897;52.420;13.498;2023-09-19T02:11:28;100300;;;15.19709;40.45289
46174;BME280;31897;52.420;13.498;2023-09-19T02:14:28;100300;;;15.03653;40.70268
46174;BME280;31897;52.420;13.498;2023-09-19T02:17:29;100300;;;14.95028;40.83937
46174;BME280;31897;52.420;13.498;2023-09-19T02:20:30;100300;;;14.90472;40.96999
46174;BME280;31897;52.420;13.498;2023-09-19T02:23:31;100300;;;14.91959;41.05895
46174;BME280;31897;52.420;13.498;2023-09-19T02:26:31;100300;;;14.89568;41.02933
46174;BME280;31897;52.420;13.498;2023-09-19T02:29:32;100300;;;14.91151;41.08863
46174;BME280;31897;52.420;13.498;2023-09-19T02:32:33;100300;;;14.89536;41.08273
46174;BME280;31897;52.420;13.498;2023-09-19T02:35:34;100300;;;14.9296;41.04707
46174;BME280;31897;52.420;13.498;2023-09-19T02:38:35;100300;;;14.91862;41.04709
46174;BME280;31897;52.420;13.498;2023-09-19T02:41:36;100300;;;14.91215;41.01151
46174;BME280;31897;52.420;13.498;2023-09-19T02:44:37;100300;;;14.90731;41.12423
46174;BME280;31897;52.420;13.498;2023-09-19T02:47:39;100300;;;15.03621;40.88072
46174;BME280;31897;52.420;13.498;2023-09-19T02:50:40;100300;;;14.95641;40.92836
46174;BME280;31897;52.420;13.498;2023-09-19T02:53:41;100300;;;14.8049;41.09474
46174;BME280;31897;52.420;13.498;2023-09-19T02:56:42;100300;;;14.7293;41.2609
46174;BME280;31897;52.420;13.498;2023-09-19T02:59:43;100300;;;14.77066;41.30829
46174;BME280;31897;52.420;13.498;2023-09-19T03:02:43;100300;;;14.79715;41.13034
46174;BME280;31897;52.420;13.498;2023-09-19T03:05:44;100300;;;14.80232;41.26674
46174;BME280;31897;52.420;13.498;2023-09-19T03:08:45;100300;;;14.91506;41.0471
46174;BME280;31897;52.420;13.498;2023-09-19T03:11:46;100300;;;14.9338;41.0352
46174;BME280;31897;52.420;13.498;2023-09-19T03:14:47;100300;;;14.91151;40.98184
46174;BME280;31897;52.420;13.498;2023-09-19T03:17:48;100300;;;14.7306;41.2016
46174;BME280;31897;52.420;13.498;2023-09-19T03:20:52;100300;;;14.62399;41.50408
46174;BME280;31897;52.420;13.498;2023-09-19T03:23:53;100300;;;14.79682;41.30233
46174;BME280;31897;52.420;13.498;2023-09-19T03:26:53;100300;;;14.77033;41.36759
46174;BME280;31897;52.420;13.498;2023-09-19T03:29:54;100300;;;14.84464;41.27855
46174;BME280;31897;52.420;13.498;2023-09-19T03:32:55;100300;;;14.90731;41.13016
46174;BME280;31897;52.420;13.498;2023-09-19T03:35:56;100300;;;14.92088;41.10048
46174;BME280;31897;52.420;13.498;2023-09-19T03:38:57;100300;;;15.03685;41.02314
46174;BME280;31897;52.420;13.498;2023-09-19T03:41:57;100300;;;15.06819;40.85691
46174;BME280;31897;52.420;13.498;2023-09-19T03:44:58;100300;;;15.09727;40.86277
46174;BME280;31897;52.420;13.498;2023-09-19T03:47:59;100300;;;15.06884;40.88658
46174;BME280;31897;52.420;13.498;2023-09-19T03:51:00;100300;;;15.06141;40.89846
46174;BME280;31897;52.420;13.498;2023-09-19T03:54:00;100300;;;15.12473;40.77961
46174;BME280;31897;52.420;13.498;2023-09-19T03:57:01;100400;;;15.15316;40.71424
46174;BME280;31897;52.420;13.498;2023-09-19T04:00:03;100400;;;14.98646;40.69094
46174;BME280;31897;52.420;13.498;2023-09-19T04:03:04;100400;;;14.82138;40.99981
46174;BME280;31897;52.420;13.498;2023-09-19T04:06:05;100400;;;14.89794;40.82762
46174;BME280;31897;52.420;13.498;2023-09-19T04:09:05;100400;;;14.8624;40.63787
46174;BME280;31897;52.420;13.498;2023-09-19T04:12:07;100400;;;14.87565;40.42424
46174;BME280;31897;52.420;13.498;2023-09-19T04:15:08;100400;;;14.7923;40.40078
46174;BME280;31897;52.420;13.498;2023-09-19T04:18:09;100400;;;14.8721;40.26406
46174;BME280;31897;52.420;13.498;2023-09-19T04:21:09;100400;;;14.88405;39.96139
46174;BME280;31897;52.420;13.498;2023-09-19T04:24:10;100400;;;14.78681;39.9974
46174;BME280;31897;52.420;13.498;2023-09-19T04:27:11;100400;;;14.75095;40.00941
46174;BME280;31897;52.420;13.498;2023-09-19T04:30:12;100400;;;14.66114;40.04535
46174;BME280;31897;52.420;13.498;2023-09-19T04:33:13;100400;;;14.65662;40.11654
46174;BME280;31897;52.420;13.498;2023-09-19T04:36:13;100400;;;14.68182;39.96816
46174;BME280;31897;52.420;13.498;2023-09-19T04:39:14;100400;;;14.6676;39.93857
46174;BME280;31897;52.420;13.498;2023-09-19T04:42:15;100400;;;14.61817;39.98028
46174;BME280;31897;52.420;13.498;2023-09-19T04:45:15;100400;;;14.66566;39.95637
46174;BME280;31897;52.420;13.498;2023-09-19T04:48:16;100400;;;14.54516;39.96279
46174;BME280;31897;52.420;13.498;2023-09-19T04:51:17;100400;;;14.41433;40.21228
46174;BME280;31897;52.420;13.498;2023-09-19T04:54:18;100400;;;14.4728;40.22393
46174;BME280;31897;52.420;13.498;2023-09-19T04:57:18;100400;;;14.5106;40.13487
46174;BME280;31897;52.420;13.498;2023-09-19T05:00:20;100400;;;14.55809;40.00425
46174;BME280;31897;52.420;13.498;2023-09-19T05:03:21;100400;;;14.50058;39.9274
46174;BME280;31897;52.420;13.498;2023-09-19T05:06:22;100400;;;14.40205;39.91594
46174;BME280;31897;52.420;13.498;2023-09-19T05:09:22;100400;;;14.30126;39.92821
46174;BME280;31897;52.420;13.498;2023-09-19T05:12:23;100400;;;14.24892;40.07656
46174;BME280;31897;52.420;13.498;2023-09-19T05:15:24;100400;;;14.41691;39.74397
46174;BME280;31897;52.420;13.498;2023-09-19T05:18:25;100400;;;14.393;39.62551
46174;BME280;31897;52.420;13.498;2023-09-19T05:21:25;100400;;;14.38687;39.54848
46174;BME280;31897;52.420;13.498;2023-09-19T05:24:26;100400;;;14.39753;39.418
46174;BME280;31897;52.420;13.498;2023-09-19T05:27:27;100500;;;14.29189;39.40077
46174;BME280;31897;52.420;13.498;2023-09-19T05:30:28;100500;;;14.38234;39.3173
46174;BME280;31897;52.420;13.498;2023-09-19T05:33:28;100500;;;14.44469;39.13314
46174;BME280;31897;52.420;13.498;2023-09-19T05:36:29;100500;;;14.37039;39.06836
46174;BME280;31897;52.420;13.498;2023-09-19T05:39:30;100500;;;14.45794;38.93737
46174;BME280;31897;52.420;13.498;2023-09-19T05:42:31;100500;;;14.5051;38.75915
46174;BME280;31897;52.420;13.498;2023-09-19T05:45:31;100500;;;14.44663;38.73583
46174;BME280;31897;52.420;13.498;2023-09-19T05:48:32;100500;;;14.38557;38.78366
46174;BME280;31897;52.420;13.498;2023-09-19T05:51:33;100500;;;14.38234;38.59394
46174;BME280;31897;52.420;13.498;2023-09-19T05:54:34;100500;;;14.34422;38.50527
46174;BME280;31897;52.420;13.498;2023-09-19T05:57:35;100500;;;14.33518;38.48754
46174;BME280;31897;52.420;13.498;2023-09-19T06:00:36;100500;;;14.34293;38.3689
46174;BME280;31897;52.420;13.498;2023-09-19T06:03:37;100500;;;14.42402;38.28524
46174;BME280;31897;52.420;13.498;2023-09-19T06:06:38;100500;;;14.51835;37.98197
46174;BME280;31897;52.420;13.498;2023-09-19T06:09:39;100500;;;14.5387;37.93433
46174;BME280;31897;52.420;13.498;2023-09-19T06:12:40;100500;;;14.59298;37.73211
46174;BME280;31897;52.420;13.498;2023-09-19T06:15:42;100500;;;14.55647;37.69091
46174;BME280;31897;52.420;13.498;2023-09-19T06:18:42;100500;;;14.55259;37.66128
46174;BME280;31897;52.420;13.498;2023-09-19T06:21:43;100500;;;14.5807;37.46519
46174;BME280;31897;52.420;13.498;2023-09-19T06:24:44;100500;;;14.414;37.47272
46174;BME280;31897;52.420;13.498;2023-09-19T06:27:45;100500;;;14.44599;37.68005
46174;BME280;31897;52.420;13.498;2023-09-19T06:30:46;100500;;;14.48443;37.35338
46174;BME280;31897;52.420;13.498;2023-09-19T06:33:46;100500;;;14.3775;37.45528
46174;BME280;31897;52.420;13.498;2023-09-19T06:36:47;100500;;;14.37685;37.44935
46174;BME280;31897;52.420;13.498;2023-09-19T06:39:48;100500;;;14.43145;37.22932
46174;BME280;31897;52.420;13.498;2023-09-19T06:42:50;100600;;;14.47991;37.12202
46174;BME280;31897;52.420;13.498;2023-09-19T06:45:51;100500;;;14.67439;36.98347
46174;BME280;31897;52.420;13.498;2023-09-19T06:48:51;100600;;;14.82008;36.69684
46174;BME280;31897;52.420;13.498;2023-09-19T06:51:53;100600;;;15.12343;36.08712
46174;BME280;31897;52.420;13.498;2023-09-19T06:54:54;100600;;;16.08873;34.50747
46174;BME280;31897;52.420;13.498;2023-09-19T06:57:55;100600;;;16.12976;34.62001
46174;BME280;31897;52.420;13.498;2023-09-19T07:00:56;100600;;;16.08098;34.69233
46174;BME280;31897;52.420;13.498;2023-09-19T07:03:57;100600;;;16.36269;34.09733
46174;BME280;31897;52.420;13.498;2023-09-19T07:06:57;100600;;;16.3362;34.32441
46174;BME280;31897;52.420;13.498;2023-09-19T07:09:58;100600;;;16.20762;34.3922
46174;BME280;31897;52.420;13.498;2023-09-19T07:12:59;100600;;;15.9902;34.56274
46174;BME280;31897;52.420;13.498;2023-09-19T07:16:00;100600;;;15.94013;34.52188
46174;BME280;31897;52.420;13.498;2023-09-19T07:19:01;100600;;;16.10844;34.34026
46174;BME280;31897;52.420;13.498;2023-09-19T07:22:01;100600;;;16.21279;34.1775
46174;BME280;31897;52.420;13.498;2023-09-19T07:25:02;100600;;;16.52745;33.95716
46174;BME280;31897;52.420;13.498;2023-09-19T07:28:03;100600;;;16.85342;33.4795
46174;BME280;31897;52.420;13.498;2023-09-19T07:31:04;100600;;;16.83953;33.25286
46174;BME280;31897;52.420;13.498;2023-09-19T07:34:05;100600;;;16.75941;33.17086
46174;BME280;31897;52.420;13.498;2023-09-19T07:37:06;100600;;;16.81045;33.08624
46174;BME280;31897;52.420;13.498;2023-09-19T07:40:07;100600;;;16.76813;33.0035
46174;BME280;31897;52.420;13.498;2023-09-19T07:43:07;100600;;;16.69447;32.79007
46174;BME280;31897;52.420;13.498;2023-09-19T07:46:08;100600;;;16.57494;32.60752
46174;BME280;31897;52.420;13.498;2023-09-19T07:49:09;100600;;;16.56105;31.89146
46174;BME280;31897;52.420;13.498;2023-09-19T07:52:10;100600;;;16.68123;31.60205
46174;BME280;31897;52.420;13.498;2023-09-19T07:55:11;100600;;;16.63212;31.40016
46174;BME280;31897;52.420;13.498;2023-09-19T07:58:11;100600;;;16.57494;31.13878
46174;BME280;31897;52.420;13.498;2023-09-19T08:01:12;100600;;;16.59465;31.05469
46174;BME280;31897;52.420;13.498;2023-09-19T08:04:13;100600;;;16.66766;30.90953
46174;BME280;31897;52.420;13.498;2023-09-19T08:07:14;100600;;;16.90964;30.72415
46174;BME280;31897;52.420;13.498;2023-09-19T08:10:15;100600;;;17.02206;30.22503
46174;BME280;31897;52.420;13.498;2023-09-19T08:13:16;100600;;;16.7523;30.19039
46174;BME280;31897;52.420;13.498;2023-09-19T08:16:17;100600;;;16.65022;30.21103
46174;BME280;31897;52.420;13.498;2023-09-19T08:19:17;100600;;;16.85407;30.27135
46174;BME280;31897;52.420;13.498;2023-09-19T08:22:18;100600;;;17.00946;29.34632
46174;BME280;31897;52.420;13.498;2023-09-19T08:25:19;100600;;;17.10121;29.45137
46174;BME280;31897;52.420;13.498;2023-09-19T08:28:20;100600;;;17.14903;29.52778
46174;BME280;31897;52.420;13.498;2023-09-19T08:31:21;100600;;;17.29796;29.58938
46174;BME280;31897;52.420;13.498;2023-09-19T08:34:22;100600;;;17.38842;29.20375
46174;BME280;31897;52.420;13.498;2023-09-19T08:37:22;100600;;;17.21881;29.06507
46174;BME280;31897;52.420;13.498;2023-09-19T08:40:23;100600;;;16.84858;28.84272
46174;BME280;31897;52.420;13.498;2023-09-19T08:43:24;100600;;;16.69674;29.05045
46174;BME280;31897;52.420;13.498;2023-09-19T08:46:25;100600;;;16.74229;29.04912
46174;BME280;31897;52.420;13.498;2023-09-19T08:49:27;100600;;;16.77007;28.82711
46174;BME280;31897;52.420;13.498;2023-09-19T08:52:39;100600;;;17.03628;28.80722
46174;BME280;31897;52.420;13.498;2023-09-19T08:55:42;100600;;;17.27308;28.59066
46174;BME280;31897;52.420;13.498;2023-09-19T08:58:44;100600;;;17.49955;28.12262
46174;BME280;31897;52.420;13.498;2023-09-19T09:01:46;100600;;;17.6963;27.63703
46174;BME280;31897;52.420;13.498;2023-09-19T09:04:47;100600;;;17.42783;27.56792
46174;BME280;31897;52.420;13.498;2023-09-19T09:07:49;100600;;;17.08409;27.73475
46174;BME280;31897;52.420;13.498;2023-09-19T09:10:50;100600;;;16.87701;28.0046
46174;BME280;31897;52.420;13.498;2023-09-19T09:13:52;100700;;;16.61339;27.98302
46174;BME280;31897;52.420;13.498;2023-09-19T09:16:52;100600;;;16.81207;27.80331
46174;BME280;31897;52.420;13.498;2023-09-19T09:19:53;100700;;;16.9694;27.67263
46174;BME280;31897;52.420;13.498;2023-09-19T09:22:55;100700;;;17.25305;27.57962
46174;BME280;31897;52.420;13.498;2023-09-19T09:25:56;100700;;;17.39779;27.29939
46174;BME280;31897;52.420;13.498;2023-09-19T09:28:57;100700;;;17.39488;27.06589
46174;BME280;31897;52.420;13.498;2023-09-19T09:31:57;100700;;;17.59873;26.86722
46174;BME280;31897;52.420;13.498;2023-09-19T09:35:16;100700;;;17.82197;26.4578
46174;BME280;31897;52.420;13.498;2023-09-19T09:38:17;100700;;;18.22968;26.07122
46174;BME280;31897;52.420;13.498;2023-09-19T09:41:18;100700;;;18.49234;25.36488
46174;BME280;31897;52.420;13.498;2023-09-19T09:44:19;100700;;;18.68101;25.34569
46174;BME280;31897;52.420;13.498;2023-09-19T09:47:22;100700;;;18.92428;24.99966
46174;BME280;31897;52.420;13.498;2023-09-19T09:50:46;100700;;;19.22118;24.47647
46174;BME280;31897;52.420;13.498;2023-09-19T09:53:47;100700;;;19.3992;23.80099
46174;BME280;31897;52.420;13.498;2023-09-19T09:56:55;100700;;;19.14688;23.84161
46174;BME280;31897;52.420;13.498;2023-09-19T09:59:57;100700;;;19.08776;23.75982
46174;BME280;31897;52.420;13.498;2023-09-19T10:02:58;100700;;;19.10585;23.69888
46174;BME280;31897;52.420;13.498;2023-09-19T10:05:59;100700;;;19.11005;23.58435
46174;BME280;31897;52.420;13.498;2023-09-19T10:09:01;100700;;;19.03251;23.40709
46174;BME280;31897;52.420;13.498;2023-09-19T10:12:03;100700;;;18.84998;23.58329
46174;BME280;31897;52.420;13.498;2023-09-19T10:15:06;100700;;;18.65775;23.86191
46174;BME280;31897;52.420;13.498;2023-09-19T10:18:07;100700;;;18.47134;24.12802
46174;BME280;31897;52.420;13.498;2023-09-19T10:21:11;100700;;;18.26425;24.36468
46174;BME280;31897;52.420;13.498;2023-09-19T10:24:12;100700;;;18.64127;24.09704
46174;BME280;31897;52.420;13.498;2023-09-19T10:27:14;100700;;;18.80571;23.5731
46174;BME280;31897;52.420;13.498;2023-09-19T10:30:15;100700;;;19.02411;23.38337
46174;BME280;31897;52.420;13.498;2023-09-19T10:33:17;100700;;;19.10262;23.19344
46174;BME280;31897;52.420;13.498;2023-09-19T10:36:19;100700;;;19.15108;23.39
46174;BME280;31897;52.420;13.498;2023-09-19T10:39:20;100700;;;19.37626;23.3804
46174;BME280;31897;52.420;13.498;2023-09-19T10:42:21;100700;;;19.77687;23.19448
46174;BME280;31897;52.420;13.498;2023-09-19T10:45:23;100700;;;20.0602;22.42211
46174;BME280;31897;52.420;13.498;2023-09-19T10:48:24;100700;;;20.4088;22.35808
46174;BME280;31897;52.420;13.498;2023-09-19T10:51:25;100700;;;20.371;21.86468
46174;BME280;31897;52.420;13.498;2023-09-19T10:54:31;100700;;;20.2198;21.08688
46174;BME280;31897;52.420;13.498;2023-09-19T10:57:34;100700;;;19.8137;21.0219
46174;BME280;31897;52.420;13.498;2023-09-19T11:00:49;100700;;;19.66089;21.04734
46174;BME280;31897;52.420;13.498;2023-09-19T11:03:51;100700;;;19.56655;20.87701
46174;BME280;31897;52.420;13.498;2023-09-19T11:07:21;100700;;;19.51647;20.71665
46174;BME280;31897;52.420;13.498;2023-09-19T11:10:43;100700;;;19.42698;20.69689
46174;BME280;31897;52.420;13.498;2023-09-19T11:13:44;100700;;;19.32877;20.71975
46174;BME280;31897;52.420;13.498;2023-09-19T11:20:18;100700;;;19.33491;20.85806
46174;BME280;31897;52.420;13.498;2023-09-19T11:23:20;100700;;;19.52003;20.80691
46174;BME280;31897;52.420;13.498;2023-09-19T11:26:32;100700;;;19.71613;20.81547
46174;BME280;31897;52.420;13.498;2023-09-19T11:29:40;100700;;;19.58496;20.91833
46174;BME280;31897;52.420;13.498;2023-09-19T11:36:14;100700;;;18.9637;21.10476
46174;BME280;31897;52.420;13.498;2023-09-19T11:39:24;100700;;;18.77115;21.27039
46174;BME280;31897;52.420;13.498;2023-09-19T11:42:41;100700;;;18.86128;21.12769
46174;BME280;31897;52.420;13.498;2023-09-19T11:49:15;100700;;;18.80119;21.38332
46174;BME280;31897;52.420;13.498;2023-09-19T11:52:21;100700;;;18.94819;21.14764
46174;BME280;31897;52.420;13.498;2023-09-19T11:55:22;100700;;;18.84578;21.24881
46174;BME280;31897;52.420;13.498;2023-09-19T11:58:25;100700;;;19.01765;21.08412
46174;BME280;31897;52.420;13.498;2023-09-19T12:01:27;100700;;;19.23928;21.09162
46174;BME280;31897;52.420;13.498;2023-09-19T12:04:33;100700;;;19.36366;20.94104
46174;BME280;31897;52.420;13.498;2023-09-19T12:07:42;100700;;;19.13234;20.92807
46174;BME280;31897;52.420;13.498;2023-09-19T12:10:46;100700;;;19.31714;20.7866
46174;BME280;31897;52.420;13.498;2023-09-19T12:13:48;100700;;;19.58722;20.71924
46174;BME280;31897;52.420;13.498;2023-09-19T12:16:50;100700;;;19.74262;20.50054
46174;BME280;31897;52.420;13.498;2023-09-19T12:19:52;100700;;;19.78171;20.45036
46174;BME280;31897;52.420;13.498;2023-09-19T12:22:53;100700;;;20.08928;20.42913
46174;BME280;31897;52.420;13.498;2023-09-19T12:25:54;100700;;;20.21657;20.14503
46174;BME280;31897;52.420;13.498;2023-09-19T12:28:55;100700;;;20.12127;19.98074
46174;BME280;31897;52.420;13.498;2023-09-19T12:31:56;100700;;;20.35646;19.90844
46174;BME280;31897;52.420;13.498;2023-09-19T12:34:57;100700;;;20.34774;19.81222
46174;BME280;31897;52.420;13.498;2023-09-19T12:37:58;100700;;;20.52737;19.63988
46174;BME280;31897;52.420;13.498;2023-09-19T12:40:59;100700;;;20.63851;19.63417
46174;BME280;31897;52.420;13.498;2023-09-19T12:44:00;100700;;;20.82848;19.43689
46174;BME280;31897;52.420;13.498;2023-09-19T12:47:08;100700;;;20.56033;19.61401
46174;BME280;31897;52.420;13.498;2023-09-19T12:50:09;100700;;;20.71799;19.73892
46174;BME280;31897;52.420;13.498;2023-09-19T12:53:14;100700;;;20.84237;19.47852
46174;BME280;31897;52.420;13.498;2023-09-19T12:56:25;100700;;;20.24662;19.99857
46174;BME280;31897;52.420;13.498;2023-09-19T12:59:29;100700;;;20.43206;19.88047
46174;BME280;31897;52.420;13.498;2023-09-19T13:02:30;100700;;;20.5403;19.66944
46174;BME280;31897;52.420;13.498;2023-09-19T13:05:46;100700;;;20.52576;19.53116
46174;BME280;31897;52.420;13.498;2023-09-19T13:08:47;100700;;;19.93808;19.90548
46174;BME280;31897;52.420;13.498;2023-09-19T13:11:48;100700;;;19.83793;20.1217
46174;BME280;31897;52.420;13.498;2023-09-19T13:14:49;100700;;;19.96684;20.067
46174;BME280;31897;52.420;13.498;2023-09-19T13:18:11;100700;;;19.78527;20.14852
46174;BME280;31897;52.420;13.498;2023-09-19T13:21:12;100700;;;19.64118;20.11953
46174;BME280;31897;52.420;13.498;2023-09-19T13:24:21;100700;;;19.55201;20.18429
46174;BME280;31897;52.420;13.498;2023-09-19T13:27:22;100700;;;19.65216;20.0104
46174;BME280;31897;52.420;13.498;2023-09-19T13:30:23;100700;;;19.63859;20.11362
46174;BME280;31897;52.420;13.498;2023-09-19T13:33:24;100700;;;19.81273;19.93595
46174;BME280;31897;52.420;13.498;2023-09-19T13:36:25;100700;;;19.57172;19.88779
46174;BME280;31897;52.420;13.498;2023-09-19T13:39:26;100700;;;19.57527;19.94792
46174;BME280;31897;52.420;13.498;2023-09-19T13:42:26;100700;;;19.58852;19.94122
46174;BME280;31897;52.420;13.498;2023-09-19T13:45:27;100700;;;19.51938;19.93265
46174;BME280;31897;52.420;13.498;2023-09-19T13:48:28;100700;;;19.54716;19.91919
46174;BME280;31897;52.420;13.498;2023-09-19T13:51:29;100700;;;19.71904;19.91051
46174;BME280;31897;52.420;13.498;2023-09-19T13:54:29;100700;;;19.78204;19.84699
46174;BME280;31897;52.420;13.498;2023-09-19T13:57:30;100700;;;19.72259;19.9224
46174;BME280;31897;52.420;13.498;2023-09-19T14:00:31;100700;;;19.41503;19.91982
46174;BME280;31897;52.420;13.498;2023-09-19T14:03:32;100700;;;19.27708;19.96293
46174;BME280;31897;52.420;13.498;2023-09-19T14:06:32;100700;;;19.11748;20.08541
46174;BME280;31897;52.420;13.498;2023-09-19T14:09:33;100700;;;19.18694;20.10605
46174;BME280;31897;52.420;13.498;2023-09-19T14:12:34;100700;;;19.08129;20.27999
46174;BME280;31897;52.420;13.498;2023-09-19T14:15:36;100700;;;18.86096;20.32099
46174;BME280;31897;52.420;13.498;2023-09-19T14:18:37;100700;;;18.71719;20.57485
46174;BME280;31897;52.420;13.498;2023-09-19T14:21:39;100700;;;18.80765;20.58248
46174;BME280;31897;52.420;13.498;2023-09-19T14:24:39;100700;;;18.72753;20.6887
46174;BME280;31897;52.420;13.498;2023-09-19T14:27:40;100700;;;18.7621;20.78935
46174;BME280;31897;52.420;13.498;2023-09-19T14:30:41;100700;;;18.56955;21.02724
46174;BME280;31897;52.420;13.498;2023-09-19T14:33:42;100700;;;18.6697;21.05857
46174;BME280;31897;52.420;13.498;2023-09-19T14:36:42;100700;;;18.71396;21.11663
46174;BME280;31897;52.420;13.498;2023-09-19T14:39:44;100700;;;18.56083;21.16601
46174;BME280;31897;52.420;13.498;2023-09-19T14:42:45;100700;;;18.50074;21.33125
46174;BME280;31897;52.420;13.498;2023-09-19T14:45:45;100700;;;18.46488;21.36902
46174;BME280;31897;52.420;13.498;2023-09-19T14:48:46;100700;;;18.42675;21.42493
46174;BME280;31897;52.420;13.498;2023-09-19T14:51:47;100700;;;18.41415;21.49767
46174;BME280;31897;52.420;13.498;2023-09-19T14:54:48;100700;;;18.62544;21.35547
46174;BME280;31897;52.420;13.498;2023-09-19T14:57:49;100600;;;18.84061;21.29721
46174;BME280;31897;52.420;13.498;2023-09-19T15:00:50;100700;;;18.7747;21.2943
46174;BME280;31897;52.420;13.498;2023-09-19T15:03:50;100700;;;18.58635;21.23098
46174;BME280;31897;52.420;13.498;2023-09-19T15:06:51;100600;;;18.50429;21.25891
46174;BME280;31897;52.420;13.498;2023-09-19T15:09:52;100600;;;18.58118;21.18911
46174;BME280;31897;52.420;13.498;2023-09-19T15:12:53;100600;;;18.63578;21.1023
46174;BME280;31897;52.420;13.498;2023-09-19T15:15:57;100600;;;18.55307;21.16037